createdAt,value
2023-03-14T00:03:36.567Z,3.10
2023-03-14T00:08:41.406Z,3.80
2023-03-14T00:13:44.932Z,3.70
2023-03-14T00:18:48.563Z,3.30
2023-03-14T00:23:52.677Z,3.90
2023-03-14T00:28:56.696Z,4.80
2023-03-14T00:34:00.033Z,5.10
2023-03-14T00:39:03.837Z,4.10
2023-03-14T00:44:07.147Z,4.70
2023-03-14T00:49:10.562Z,4.30
2023-03-14T00:54:14.075Z,3.30
2023-03-14T00:59:18.307Z,5.20
2023-03-14T01:09:25.036Z,4.10
2023-03-14T01:14:28.454Z,2.90
2023-03-14T01:19:32.915Z,3.40
2023-03-14T01:24:38.661Z,3.40
2023-03-14T01:29:41.975Z,3.20
2023-03-14T01:34:45.489Z,3.60
2023-03-14T01:39:49.257Z,3.70
2023-03-14T01:44:54.261Z,4.00
2023-03-14T01:50:12.418Z,4.20
2023-03-14T01:55:23.408Z,4.00
2023-03-14T02:00:27.346Z,3.90
2023-03-14T02:05:36.825Z,3.50
2023-03-14T02:10:44.297Z,4.00
2023-03-14T02:15:47.809Z,3.90
2023-03-14T02:21:01.882Z,3.50
2023-03-14T02:26:12.038Z,3.20
2023-03-14T02:31:17.458Z,3.90
2023-03-14T02:36:22.245Z,3.50
2023-03-14T02:41:25.553Z,3.30
2023-03-14T02:46:29.451Z,4.40
2023-03-14T02:51:34.026Z,3.90
2023-03-14T02:56:38.455Z,5.10
2023-03-14T03:01:41.849Z,3.30
2023-03-14T03:06:45.486Z,3.00
2023-03-14T03:11:49.121Z,2.90
2023-03-14T03:16:52.536Z,3.20
2023-03-14T03:21:56.038Z,3.10
2023-03-14T03:27:00.168Z,3.30
2023-03-14T03:32:03.581Z,2.90
2023-03-14T03:37:07.023Z,3.50
2023-03-14T03:42:11.131Z,3.00
2023-03-14T03:47:14.436Z,3.20
2023-03-14T03:52:18.054Z,3.00
2023-03-14T03:57:21.678Z,3.20
2023-03-14T04:02:25.263Z,6.10
2023-03-14T04:12:32.534Z,2.90
2023-03-14T04:17:36.042Z,3.40
2023-03-14T04:22:40.924Z,2.90
2023-03-14T04:27:45.223Z,2.80
2023-03-14T04:32:48.783Z,3.00
2023-03-14T04:37:53.177Z,3.20
2023-03-14T04:42:56.689Z,3.20
2023-03-14T04:48:00.214Z,3.30
2023-03-14T04:53:03.825Z,2.80
2023-03-14T04:58:07.766Z,2.80
2023-03-14T05:03:11.119Z,3.70
2023-03-14T05:08:14.776Z,3.10
2023-03-14T05:13:18.102Z,3.20
2023-03-14T05:18:21.705Z,3.20
2023-03-14T05:23:25.115Z,4.20
2023-03-14T05:28:28.629Z,3.90
2023-03-14T05:33:32.145Z,2.90
2023-03-14T05:38:35.662Z,2.80
2023-03-14T05:43:39.218Z,2.20
2023-03-14T05:48:42.597Z,2.90
2023-03-14T05:53:45.909Z,2.40
2023-03-14T05:58:49.214Z,2.00
2023-03-14T06:03:52.732Z,2.70
2023-03-14T06:08:56.155Z,2.60
2023-03-14T06:13:59.656Z,2.60
2023-03-14T06:19:03.170Z,3.20
2023-03-14T06:24:06.870Z,1.80
2023-03-14T06:29:10.407Z,3.10
2023-03-14T06:34:13.818Z,2.50
2023-03-14T06:39:17.235Z,2.70
2023-03-14T06:44:20.865Z,2.80
2023-03-14T06:49:24.577Z,3.70
2023-03-14T06:54:28.001Z,3.90
2023-03-14T06:59:31.613Z,2.90
2023-03-14T07:04:35.186Z,3.90
2023-03-14T07:09:38.744Z,2.60
2023-03-14T07:14:42.259Z,3.10
2023-03-14T07:19:45.666Z,3.90
2023-03-14T07:24:49.195Z,2.90
2023-03-14T07:29:52.803Z,3.20
2023-03-14T07:34:56.419Z,3.30
2023-03-14T07:39:59.836Z,3.00
2023-03-14T07:45:04.386Z,3.20
2023-03-14T07:50:08.841Z,2.90
2023-03-14T07:55:14.799Z,3.10
2023-03-14T08:00:19.022Z,3.30
2023-03-14T08:10:25.791Z,4.20
2023-03-14T08:15:31.952Z,3.70
2023-03-14T08:20:35.538Z,3.50
2023-03-14T08:25:39.761Z,3.40
2023-03-14T08:30:46.815Z,3.50
2023-03-14T08:35:57.489Z,3.30
2023-03-14T08:41:02.924Z,3.50
2023-03-14T08:46:06.838Z,3.40
2023-03-14T08:51:13.751Z,3.10
2023-03-14T08:56:17.146Z,2.90
2023-03-14T09:01:20.775Z,2.90
2023-03-14T09:06:24.384Z,3.90
2023-03-14T09:11:27.791Z,3.10
2023-03-14T09:16:31.392Z,3.40
2023-03-14T09:21:35.030Z,4.50
2023-03-14T09:26:39.266Z,2.80
2023-03-14T09:36:46.709Z,3.70
2023-03-14T09:41:53.335Z,3.50
2023-03-14T09:47:02.132Z,3.50
2023-03-14T09:52:33.595Z,3.50
2023-03-14T09:57:38.033Z,3.10
2023-03-14T10:02:44.117Z,3.10
2023-03-14T10:07:48.029Z,3.60
2023-03-14T10:13:01.705Z,3.70
2023-03-14T10:18:13.964Z,3.80
2023-03-14T10:23:17.421Z,3.40
2023-03-14T10:28:32.127Z,3.10
2023-03-14T10:33:38.327Z,4.00
2023-03-14T10:38:41.791Z,3.80
2023-03-14T10:43:45.485Z,3.00
2023-03-14T10:48:50.978Z,3.90
2023-03-14T10:53:58.792Z,4.50
2023-03-14T10:59:02.314Z,4.10
2023-03-14T11:04:50.607Z,3.80
2023-03-14T11:10:00.057Z,4.10
2023-03-14T11:15:24.890Z,4.10
2023-03-14T11:20:39.622Z,3.70
2023-03-14T11:26:16.527Z,3.80
2023-03-14T11:31:33.125Z,3.40
2023-03-14T11:36:44.644Z,3.80
2023-03-14T11:41:52.265Z,3.80
2023-03-14T11:47:08.008Z,3.20
2023-03-14T11:52:35.237Z,3.40
2023-03-14T11:57:40.737Z,2.80
2023-03-14T12:02:53.114Z,3.30
2023-03-14T12:08:31.346Z,2.90
2023-03-14T12:13:39.141Z,3.20
2023-03-14T12:18:43.816Z,2.80
2023-03-14T12:23:51.516Z,3.10
2023-03-14T12:29:01.587Z,2.70
2023-03-14T12:34:11.040Z,2.90
2023-03-14T12:39:41.283Z,3.00
2023-03-14T12:44:52.729Z,3.20
2023-03-14T12:49:59.168Z,3.20
2023-03-14T12:55:20.503Z,2.90
2023-03-14T13:00:31.436Z,3.10
2023-03-14T13:05:34.905Z,3.80
2023-03-14T13:10:46.715Z,3.20
2023-03-14T13:15:55.144Z,3.70
2023-03-14T13:21:03.887Z,3.90
2023-03-14T13:26:15.495Z,4.40
2023-03-14T13:31:25.866Z,4.30
2023-03-14T13:36:29.292Z,5.30
2023-03-14T13:41:32.796Z,4.30
2023-03-14T13:46:38.491Z,4.70
2023-03-14T13:51:41.972Z,4.30
2023-03-14T13:56:46.000Z,4.90
2023-03-14T14:01:50.180Z,4.30
2023-03-14T14:12:21.686Z,3.80
2023-03-14T14:17:34.083Z,4.10
2023-03-14T14:22:37.778Z,4.80
2023-03-14T14:27:47.955Z,4.80
2023-03-14T14:32:52.649Z,5.00
2023-03-14T14:37:56.120Z,5.00
2023-03-14T14:43:06.718Z,4.20
2023-03-14T14:48:14.827Z,5.30
2023-03-14T14:53:27.960Z,5.20
2023-03-14T14:58:39.565Z,4.30
2023-03-14T15:03:49.631Z,5.20
2023-03-14T15:08:54.076Z,5.00
2023-03-14T15:13:57.689Z,4.80
2023-03-14T15:19:21.412Z,4.40
2023-03-14T15:24:27.042Z,4.60
2023-03-14T15:29:30.452Z,5.20
2023-03-14T15:34:33.739Z,3.80
2023-03-14T15:39:37.282Z,4.60
2023-03-14T15:44:41.003Z,4.60
2023-03-14T15:49:44.314Z,4.80
2023-03-14T15:54:47.824Z,5.60
2023-03-14T15:59:51.248Z,5.20
2023-03-14T16:04:54.860Z,5.20
2023-03-14T16:09:58.474Z,6.20
2023-03-14T16:15:01.986Z,3.40
2023-03-14T16:20:06.645Z,4.70
2023-03-14T16:25:10.665Z,4.80
2023-03-14T16:30:14.669Z,5.40
2023-03-14T16:40:21.305Z,4.40
2023-03-14T16:45:24.723Z,5.10
2023-03-14T16:50:28.136Z,4.80
2023-03-14T16:55:32.364Z,4.50
2023-03-14T17:05:45.145Z,5.20
2023-03-14T17:10:48.540Z,4.00
2023-03-14T17:15:57.231Z,4.90
2023-03-14T17:21:01.726Z,4.80
2023-03-14T17:26:05.435Z,5.50
2023-03-14T17:31:17.877Z,5.40
2023-03-14T17:36:26.093Z,4.30
2023-03-14T17:41:29.543Z,4.90
2023-03-14T17:46:32.930Z,4.20
2023-03-14T17:51:36.305Z,4.30
2023-03-14T17:56:39.762Z,4.20
2023-03-14T18:01:43.595Z,4.50
2023-03-14T18:06:46.984Z,4.50
2023-03-14T18:11:58.852Z,4.80
2023-03-14T18:17:06.297Z,5.90
2023-03-14T18:27:14.768Z,4.20
2023-03-14T18:32:18.204Z,5.20
2023-03-14T18:37:21.705Z,6.10
2023-03-14T18:42:25.214Z,5.30
2023-03-14T18:47:28.623Z,5.80
2023-03-14T18:52:32.447Z,4.70
2023-03-14T18:57:35.863Z,5.10
2023-03-14T19:07:43.603Z,5.30
2023-03-14T19:12:48.372Z,6.70
2023-03-14T19:17:51.762Z,4.60
2023-03-14T19:22:58.549Z,5.80
2023-03-14T19:28:01.972Z,4.70
2023-03-14T19:33:05.439Z,5.00
2023-03-14T19:38:09.609Z,5.10
2023-03-14T19:43:13.433Z,6.60
2023-03-14T19:48:16.952Z,7.10
2023-03-14T19:53:21.484Z,18.60
2023-03-14T19:58:25.218Z,7.30
2023-03-14T20:03:28.698Z,5.00
2023-03-14T20:08:32.440Z,4.70
2023-03-14T20:13:36.264Z,5.30
2023-03-14T20:18:40.091Z,7.50
2023-03-14T20:23:44.432Z,7.20
2023-03-14T20:33:51.766Z,5.00
2023-03-14T20:38:55.186Z,4.90
2023-03-14T20:43:59.117Z,4.30
2023-03-14T20:49:02.993Z,6.00
2023-03-14T20:54:09.239Z,4.20
2023-03-14T20:59:13.953Z,5.40
2023-03-14T21:04:18.412Z,5.20
2023-03-14T21:09:26.514Z,5.00
2023-03-14T21:14:29.831Z,4.70
2023-03-14T21:19:33.541Z,4.80
2023-03-14T21:24:36.856Z,4.90
2023-03-14T21:29:40.676Z,4.70
2023-03-14T21:34:43.986Z,5.30
2023-03-14T21:39:47.522Z,5.10
2023-03-14T21:44:52.287Z,5.10
2023-03-14T21:49:55.659Z,4.70
2023-03-14T21:54:59.072Z,3.60
2023-03-14T22:00:02.489Z,1.00
2023-03-14T22:05:06.498Z,0.60
2023-03-14T22:10:12.614Z,1.20
2023-03-14T22:15:15.997Z,1.50
2023-03-14T22:20:19.922Z,1.00
2023-03-14T22:25:23.444Z,0.90
2023-03-14T22:30:26.950Z,0.80
2023-03-14T22:35:30.773Z,1.90
2023-03-14T22:40:34.201Z,1.60
2023-03-14T22:45:38.083Z,0.80
2023-03-14T22:50:41.626Z,1.10
2023-03-14T22:55:45.143Z,0.90
2023-03-14T23:00:48.677Z,1.40
2023-03-14T23:05:53.296Z,0.70
2023-03-14T23:11:01.771Z,0.80
2023-03-14T23:16:06.929Z,1.30
2023-03-14T23:21:15.406Z,1.90
2023-03-14T23:26:22.645Z,1.30
2023-03-14T23:31:26.554Z,2.60
2023-03-14T23:36:30.047Z,2.00
2023-03-14T23:41:33.488Z,1.70
2023-03-14T23:46:36.881Z,1.50
2023-03-14T23:51:40.215Z,1.00
2023-03-14T23:56:43.596Z,1.80
